createdAt,value
2023-03-11T00:04:06.332Z,989.88
2023-03-11T00:08:06.294Z,989.93
2023-03-11T00:11:06.278Z,990.02
2023-03-11T00:25:06.128Z,989.82
2023-03-11T01:18:05.585Z,990.46
2023-03-11T01:22:05.549Z,990.23
2023-03-11T01:33:05.441Z,990.18
2023-03-11T01:35:05.662Z,990.14
2023-03-11T01:36:05.464Z,990.08
2023-03-11T01:37:05.410Z,990.02
2023-03-11T01:38:05.380Z,990.06
2023-03-11T06:17:33.561Z,991.27
2023-03-11T06:30:33.237Z,991.29
2023-03-11T06:31:33.259Z,991.30
2023-03-11T06:32:33.257Z,991.36
2023-03-11T06:33:33.189Z,991.39
2023-03-11T06:34:33.178Z,991.41
2023-03-11T06:35:33.232Z,991.45
2023-03-11T06:36:33.355Z,991.44
2023-03-11T06:37:33.164Z,991.52
2023-03-11T06:38:33.370Z,991.50
2023-03-11T06:39:33.140Z,991.47
2023-03-11T06:40:33.320Z,991.46
2023-03-11T06:41:33.119Z,991.49
2023-03-11T06:42:33.096Z,991.44
2023-03-11T06:43:33.076Z,991.46
2023-03-11T06:44:33.091Z,991.46
2023-03-11T06:45:33.157Z,991.47
2023-03-11T06:46:33.068Z,991.46
2023-03-11T06:47:33.040Z,991.51
2023-03-11T06:48:33.040Z,991.46
2023-03-11T06:49:33.016Z,991.51
2023-03-11T06:50:33.032Z,991.54
2023-03-11T06:51:32.996Z,991.50
2023-03-11T06:52:32.993Z,991.57
2023-03-11T06:53:33.175Z,991.58
2023-03-11T06:54:33.204Z,991.53
2023-03-11T06:55:32.960Z,991.52
2023-03-11T06:56:32.959Z,991.60
2023-03-11T06:57:32.939Z,991.58
2023-03-11T06:58:32.942Z,991.60
2023-03-11T06:59:32.911Z,991.65
2023-03-11T07:00:32.914Z,991.67
2023-03-11T07:01:38.900Z,991.66
2023-03-11T07:02:32.896Z,991.66
2023-03-11T07:03:32.880Z,991.72
2023-03-11T07:04:32.869Z,991.75
2023-03-11T07:05:32.866Z,991.75
2023-03-11T07:06:32.850Z,991.79
2023-03-11T07:07:32.837Z,991.82
2023-03-11T07:08:38.840Z,991.84
2023-03-11T07:09:32.829Z,991.85
2023-03-11T07:10:32.850Z,991.82
2023-03-11T07:11:32.793Z,991.80
2023-03-11T07:12:32.806Z,991.86
2023-03-11T07:13:32.769Z,991.94
2023-03-11T07:14:32.773Z,991.96
2023-03-11T07:15:32.749Z,991.97
2023-03-11T07:16:32.787Z,991.92
2023-03-11T07:17:32.755Z,991.92
2023-03-11T07:18:32.728Z,991.95
2023-03-11T07:19:32.710Z,991.90
2023-03-11T07:20:32.711Z,991.90
2023-03-11T07:21:32.691Z,991.90
2023-03-11T07:22:32.696Z,991.94
2023-03-11T07:23:32.666Z,991.99
2023-03-11T07:24:38.679Z,991.96
2023-03-11T07:25:32.663Z,991.92
2023-03-11T07:26:32.678Z,991.88
2023-03-11T07:27:32.626Z,991.88
2023-03-11T07:28:32.630Z,991.88
2023-03-11T07:29:32.604Z,991.92
2023-03-11T07:30:32.611Z,991.91
2023-03-11T07:31:32.664Z,991.89
2023-03-11T07:32:32.640Z,991.91
2023-03-11T07:33:34.249Z,991.87
2023-03-11T07:34:32.575Z,991.83
2023-03-11T07:35:32.616Z,991.85
2023-03-11T07:36:32.549Z,991.87
2023-03-11T07:37:32.539Z,991.88
2023-03-11T07:38:32.537Z,991.86
2023-03-11T07:39:32.500Z,991.83
2023-03-11T07:40:32.504Z,991.80
2023-03-11T07:41:32.477Z,991.84
2023-03-11T07:42:32.502Z,991.83
2023-03-11T07:43:32.467Z,991.82
2023-03-11T07:44:32.452Z,991.87
2023-03-11T07:45:32.457Z,991.85
2023-03-11T07:46:32.509Z,991.87
2023-03-11T07:47:32.433Z,991.87
2023-03-11T07:48:32.626Z,991.92
2023-03-11T07:49:32.393Z,991.93
2023-03-11T07:50:38.412Z,991.91
2023-03-11T07:51:32.403Z,991.95
2023-03-11T07:52:32.376Z,991.97
2023-03-11T07:53:32.355Z,991.97
2023-03-11T07:54:32.357Z,992.02
2023-03-11T07:55:32.330Z,992.03
2023-03-11T07:56:32.339Z,992.05
2023-03-11T07:57:32.308Z,992.07
2023-03-11T07:58:32.334Z,992.04
2023-03-11T07:59:32.282Z,992.01
2023-03-11T08:00:32.297Z,992.07
2023-03-11T08:01:38.273Z,992.12
2023-03-11T08:02:32.486Z,992.10
2023-03-11T08:03:32.504Z,992.13
2023-03-11T08:04:32.249Z,992.16
2023-03-11T08:05:32.230Z,992.12
2023-03-11T08:06:38.255Z,992.15
2023-03-11T08:07:32.211Z,992.15
2023-03-11T08:08:38.236Z,992.17
2023-03-11T08:09:32.181Z,992.21
2023-03-11T08:10:32.188Z,992.18
2023-03-11T08:11:32.173Z,992.19
2023-03-11T08:12:32.153Z,992.17
2023-03-11T08:13:32.141Z,992.20
2023-03-11T08:14:32.169Z,992.20
2023-03-11T08:15:32.134Z,992.20
2023-03-11T08:16:32.144Z,992.20
2023-03-11T08:17:32.093Z,992.19
2023-03-11T08:18:32.119Z,992.18
2023-03-11T08:19:32.078Z,992.19
2023-03-11T08:20:32.283Z,992.21
2023-03-11T08:21:32.593Z,992.23
2023-03-11T08:22:32.067Z,992.30
2023-03-11T08:23:38.037Z,992.30
2023-03-11T08:24:38.047Z,992.33
2023-03-11T08:25:32.014Z,992.31
2023-03-11T08:26:32.019Z,992.28
2023-03-11T08:27:31.994Z,992.28
2023-03-11T08:28:31.994Z,992.25
2023-03-11T08:29:38.004Z,992.26
2023-03-11T08:30:31.982Z,992.25
2023-03-11T08:31:32.055Z,992.28
2023-03-11T08:32:38.076Z,992.33
2023-03-11T08:33:31.962Z,992.26
2023-03-11T08:34:31.935Z,992.30
2023-03-11T08:35:31.902Z,992.29
2023-03-11T08:36:31.933Z,992.28
2023-03-11T08:37:32.091Z,992.28
2023-03-11T08:38:32.134Z,992.29
2023-03-11T08:39:31.926Z,992.32
2023-03-11T08:40:31.883Z,992.27
2023-03-11T08:41:31.844Z,992.32
2023-03-11T08:42:32.035Z,992.34
2023-03-11T08:43:31.833Z,992.29
2023-03-11T08:44:31.813Z,992.34
2023-03-11T08:45:31.843Z,992.30
2023-03-11T08:46:31.880Z,992.30
2023-03-11T08:48:14.624Z,992.30
2023-03-11T08:49:14.590Z,992.25
2023-03-11T08:50:14.595Z,992.26
2023-03-11T08:51:14.565Z,992.27
2023-03-11T08:52:14.564Z,992.28
2023-03-11T08:53:14.759Z,992.30
2023-03-11T08:54:20.744Z,992.24
2023-03-11T08:55:14.524Z,992.28
2023-03-11T08:56:14.515Z,992.25
2023-03-11T08:57:14.518Z,992.26
2023-03-11T08:58:14.504Z,992.28
2023-03-11T08:59:14.477Z,992.27
2023-03-11T09:00:14.476Z,992.21
2023-03-11T09:01:14.478Z,992.24
2023-03-11T09:02:14.453Z,992.28
2023-03-11T09:03:14.441Z,992.28
2023-03-11T09:04:14.453Z,992.29
2023-03-11T09:05:14.419Z,992.30
2023-03-11T09:06:14.529Z,992.31
2023-03-11T09:07:14.401Z,992.34
2023-03-11T09:08:14.582Z,992.30
2023-03-11T09:09:14.390Z,992.36
2023-03-11T09:10:14.367Z,992.35
2023-03-11T09:11:14.347Z,992.39
2023-03-11T09:12:14.346Z,992.40
2023-03-11T09:13:14.333Z,992.39
2023-03-11T09:14:14.325Z,992.43
2023-03-11T09:15:14.340Z,992.45
2023-03-11T09:16:14.378Z,992.54
2023-03-11T09:17:14.316Z,992.49
2023-03-11T09:18:14.296Z,992.52
2023-03-11T09:19:14.262Z,992.49
2023-03-11T09:20:14.316Z,992.53
2023-03-11T09:21:14.261Z,992.50
2023-03-11T09:22:14.251Z,992.46
2023-03-11T09:23:20.250Z,992.47
2023-03-11T09:24:14.216Z,992.45
2023-03-11T09:25:14.200Z,992.41
2023-03-11T09:26:14.203Z,992.44
2023-03-11T09:27:14.379Z,992.42
2023-03-11T09:28:14.377Z,992.44
2023-03-11T09:29:49.080Z,992.43
2023-03-11T09:30:48.844Z,992.41
2023-03-11T09:31:48.947Z,992.41
2023-03-11T09:32:48.916Z,992.35
2023-03-11T09:33:48.806Z,992.41
2023-03-11T09:34:48.816Z,992.40
2023-03-11T09:35:48.821Z,992.44
2023-03-11T09:37:27.505Z,992.37
2023-03-11T09:38:27.488Z,992.40
2023-03-11T09:39:27.451Z,992.42
2023-03-11T09:40:27.459Z,992.34
2023-03-11T09:41:27.431Z,992.39
2023-03-11T09:42:27.426Z,992.41
2023-03-11T09:43:27.405Z,992.43
2023-03-11T09:44:27.610Z,992.39
2023-03-11T09:45:27.395Z,992.42
2023-03-11T09:46:27.453Z,992.40
2023-03-11T09:47:27.374Z,992.38
2023-03-11T09:48:27.395Z,992.37
2023-03-11T09:49:27.361Z,992.44
2023-03-11T09:50:33.366Z,992.42
2023-03-11T09:51:27.320Z,992.48
2023-03-11T09:52:27.354Z,992.51
2023-03-11T09:53:33.510Z,992.46
2023-03-11T09:54:27.298Z,992.45
2023-03-11T09:55:33.496Z,992.45
2023-03-11T09:56:27.479Z,992.40
2023-03-11T09:57:27.273Z,992.45
2023-03-11T09:58:27.247Z,992.39
2023-03-11T09:59:27.241Z,992.43
2023-03-11T10:00:27.231Z,992.49
2023-03-11T10:01:27.210Z,992.44
2023-03-11T10:02:27.323Z,992.53
2023-03-11T10:03:27.388Z,992.50
2023-03-11T10:04:33.219Z,992.52
2023-03-11T10:05:27.412Z,992.56
2023-03-11T10:06:33.176Z,992.57
2023-03-11T10:07:27.141Z,992.55
2023-03-11T10:08:27.145Z,992.57
2023-03-11T10:09:27.127Z,992.55
2023-03-11T10:10:27.121Z,992.62
2023-03-11T10:11:27.105Z,992.62
2023-03-11T10:12:27.104Z,992.61
2023-03-11T10:14:11.856Z,992.67
2023-03-11T10:15:11.840Z,992.68
2023-03-11T10:16:05.892Z,992.62
2023-03-11T10:17:05.816Z,992.60
2023-03-11T10:18:05.791Z,992.58
2023-03-11T10:19:05.798Z,992.66
2023-03-11T10:20:05.816Z,992.61
2023-03-11T10:21:05.774Z,992.63
2023-03-11T10:22:05.767Z,992.58
2023-03-11T10:23:05.747Z,992.65
2023-03-11T10:24:05.738Z,992.59
2023-03-11T10:25:05.726Z,992.54
2023-03-11T10:26:05.913Z,992.55
2023-03-11T10:27:05.714Z,992.64
2023-03-11T10:28:05.893Z,992.64
2023-03-11T10:29:11.912Z,992.61
2023-03-11T10:30:05.875Z,992.61
2023-03-11T10:31:05.670Z,992.57
2023-03-11T10:32:05.652Z,992.60
2023-03-11T10:33:05.646Z,992.55
2023-03-11T10:34:05.642Z,992.52
2023-03-11T10:35:11.660Z,992.51
2023-03-11T10:36:11.782Z,992.50
2023-03-11T10:37:05.619Z,992.52
2023-03-11T10:38:11.594Z,992.43
2023-03-11T10:39:05.590Z,992.44
2023-03-11T10:40:05.566Z,992.45
2023-03-11T10:41:11.570Z,992.42
2023-03-11T10:42:05.558Z,992.38
2023-03-11T10:43:05.567Z,992.38
2023-03-11T10:44:05.526Z,992.41
2023-03-11T10:45:05.528Z,992.34
2023-03-11T10:46:05.735Z,992.37
2023-03-11T10:47:05.501Z,992.32
2023-03-11T10:48:05.479Z,992.35
2023-03-11T10:49:05.490Z,992.32
2023-03-11T10:50:05.666Z,992.30
2023-03-11T10:51:05.481Z,992.34
2023-03-11T10:52:05.444Z,992.34
2023-03-11T10:53:05.441Z,992.31
2023-03-11T10:54:05.439Z,992.33
2023-03-11T10:55:05.628Z,992.31
2023-03-11T10:56:05.401Z,992.34
2023-03-11T10:57:05.406Z,992.39
2023-03-11T10:58:05.384Z,992.37
2023-03-11T10:59:05.381Z,992.39
2023-03-11T11:00:05.368Z,992.39
2023-03-11T11:01:05.599Z,992.38
2023-03-11T11:02:05.350Z,992.42
2023-03-11T11:03:05.341Z,992.46
2023-03-11T11:04:05.385Z,992.41
2023-03-11T11:05:05.562Z,992.46
2023-03-11T11:06:05.304Z,992.44
2023-03-11T11:07:05.323Z,992.43
2023-03-11T11:08:05.276Z,992.41
2023-03-11T11:09:05.286Z,992.43
2023-03-11T11:10:05.259Z,992.49
2023-03-11T11:11:05.257Z,992.44
2023-03-11T11:12:05.467Z,992.41
2023-03-11T11:13:05.234Z,992.40
2023-03-11T11:14:05.429Z,992.45
2023-03-11T11:15:05.212Z,992.37
2023-03-11T11:16:05.199Z,992.25
2023-03-11T11:17:05.192Z,992.15
2023-03-11T11:18:05.172Z,992.10
2023-03-11T11:19:05.400Z,992.10
2023-03-11T11:20:05.357Z,992.15
2023-03-11T11:21:05.158Z,992.15
2023-03-11T11:22:05.138Z,992.15
2023-03-11T11:23:05.154Z,992.12
2023-03-11T11:24:05.122Z,992.11
2023-03-11T11:25:05.162Z,992.06
2023-03-11T11:26:05.098Z,992.09
2023-03-11T11:27:05.314Z,992.12
2023-03-11T11:28:05.080Z,992.12
2023-03-11T11:29:06.265Z,992.09
2023-03-11T11:30:11.059Z,992.08
2023-03-11T11:31:05.351Z,992.08
2023-03-11T11:32:05.234Z,992.11
2023-03-11T11:33:11.238Z,992.10
2023-03-11T11:34:05.013Z,992.10
2023-03-11T11:35:05.028Z,992.07
2023-03-11T11:36:04.990Z,992.01
2023-03-11T11:37:04.997Z,992.21
2023-03-11T11:38:04.969Z,992.18
2023-03-11T11:39:05.052Z,992.05
2023-03-11T11:40:04.952Z,992.10
2023-03-11T11:41:04.956Z,992.14
2023-03-11T11:42:04.937Z,992.10
2023-03-11T11:43:04.933Z,992.18
2023-03-11T11:44:04.908Z,992.23
2023-03-11T11:45:04.906Z,992.24
2023-03-11T11:46:04.930Z,992.23
2023-03-11T11:47:06.316Z,992.21
2023-03-11T11:48:04.881Z,992.21
2023-03-11T11:49:04.872Z,992.22
2023-03-11T11:50:04.846Z,992.22
2023-03-11T11:51:11.052Z,992.21
2023-03-11T11:52:04.834Z,992.17
2023-03-11T11:53:04.825Z,992.21
2023-03-11T11:54:04.802Z,992.25
2023-03-11T11:55:04.822Z,992.38
2023-03-11T11:56:04.789Z,992.31
2023-03-11T11:57:04.790Z,992.15
2023-03-11T11:58:04.782Z,992.08
2023-03-11T11:59:04.800Z,992.23
2023-03-11T12:00:05.192Z,992.05
2023-03-11T12:01:11.071Z,992.08
2023-03-11T12:02:04.772Z,992.06
2023-03-11T12:03:04.757Z,992.09
2023-03-11T12:04:04.765Z,992.20
2023-03-11T12:05:04.948Z,991.98
2023-03-11T12:06:04.714Z,992.04
2023-03-11T12:07:04.734Z,992.01
2023-03-11T12:08:04.684Z,992.10
2023-03-11T12:09:04.721Z,992.05
2023-03-11T12:10:21.444Z,992.01
2023-03-11T12:11:05.977Z,992.02
2023-03-11T12:12:04.684Z,992.02
2023-03-11T12:13:04.674Z,991.99
2023-03-11T12:14:04.658Z,992.05
2023-03-11T12:15:10.704Z,992.04
2023-03-11T12:16:04.835Z,992.01
2023-03-11T12:17:04.643Z,991.99
2023-03-11T12:18:04.627Z,991.99
2023-03-11T12:19:04.626Z,992.06
2023-03-11T12:20:04.596Z,992.14
2023-03-11T12:21:04.562Z,992.16
2023-03-11T12:22:04.590Z,992.12
2023-03-11T12:23:04.552Z,992.15
2023-03-11T12:24:04.551Z,992.16
2023-03-11T12:25:04.535Z,992.14
2023-03-11T12:26:04.749Z,992.12
2023-03-11T12:27:04.522Z,992.08
2023-03-11T12:28:04.711Z,992.05
2023-03-11T12:29:04.496Z,992.03
2023-03-11T12:30:04.503Z,992.05
2023-03-11T12:31:04.713Z,991.98
2023-03-11T12:32:06.758Z,992.02
2023-03-11T12:33:04.508Z,991.96
2023-03-11T12:34:10.478Z,991.98
2023-03-11T12:35:04.492Z,991.85
2023-03-11T12:36:04.517Z,991.82
2023-03-11T12:37:04.648Z,991.89
2023-03-11T12:38:10.467Z,992.15
2023-03-11T12:39:10.473Z,991.86
2023-03-11T12:40:04.375Z,992.01
2023-03-11T12:41:04.397Z,991.97
2023-03-11T12:42:04.470Z,991.99
2023-03-11T12:43:04.391Z,991.98
2023-03-11T12:44:04.561Z,991.71
2023-03-11T12:45:04.344Z,991.86
2023-03-11T12:46:04.358Z,991.87
2023-03-11T12:47:10.419Z,991.74
2023-03-11T12:48:04.514Z,991.71
2023-03-11T12:49:04.317Z,991.73
2023-03-11T12:50:04.301Z,991.69
2023-03-11T12:51:04.311Z,991.85
2023-03-11T12:52:04.336Z,991.82
2023-03-11T12:53:04.320Z,991.91
2023-03-11T12:54:10.300Z,991.88
2023-03-11T12:55:04.255Z,991.86
2023-03-11T12:56:04.240Z,991.81
2023-03-11T12:57:04.283Z,991.79
2023-03-11T12:58:04.628Z,991.82
2023-03-11T12:59:04.484Z,991.79
2023-03-11T13:00:10.231Z,991.77
2023-03-11T13:01:04.453Z,991.71
2023-03-11T13:02:04.285Z,991.77
2023-03-11T13:03:04.223Z,991.68
2023-03-11T13:04:04.174Z,991.64
2023-03-11T13:05:10.276Z,991.62
2023-03-11T13:06:04.132Z,991.66
2023-03-11T13:07:04.143Z,991.64
2023-03-11T13:08:04.127Z,991.65
2023-03-11T13:09:04.311Z,991.61
2023-03-11T13:10:45.406Z,991.70
2023-03-11T13:11:39.343Z,991.79
2023-03-11T13:12:39.326Z,991.77
2023-03-11T13:13:39.150Z,991.70
2023-03-11T13:14:39.139Z,991.63
2023-03-11T13:15:39.115Z,991.57
2023-03-11T13:16:39.213Z,991.60
2023-03-11T13:17:39.078Z,991.55
2023-03-11T13:18:39.057Z,991.65
2023-03-11T13:19:39.042Z,991.60
2023-03-11T13:20:39.312Z,991.53
2023-03-11T13:21:39.066Z,991.56
2023-03-11T13:22:39.027Z,991.60
2023-03-11T13:23:39.441Z,991.59
2023-03-11T13:24:38.992Z,991.61
2023-03-11T13:25:39.034Z,991.66
2023-03-11T13:26:39.006Z,991.64
2023-03-11T13:27:39.002Z,991.60
2023-03-11T13:28:38.972Z,991.49
2023-03-11T13:29:39.012Z,991.40
2023-03-11T13:30:38.968Z,991.44
2023-03-11T13:31:38.985Z,991.41
2023-03-11T13:32:38.964Z,991.38
2023-03-11T13:33:38.934Z,991.41
2023-03-11T13:34:38.917Z,991.41
2023-03-11T13:35:38.949Z,991.43
2023-03-11T13:36:44.904Z,991.40
2023-03-11T13:37:39.072Z,991.42
2023-03-11T13:38:45.101Z,991.41
2023-03-11T13:39:38.838Z,991.43
2023-03-11T13:40:38.845Z,991.40
2023-03-11T13:41:38.857Z,991.38
2023-03-11T13:42:38.829Z,991.46
2023-03-11T13:43:38.820Z,991.47
2023-03-11T13:44:38.785Z,991.36
2023-03-11T13:45:39.239Z,991.41
2023-03-11T13:46:38.818Z,991.41
2023-03-11T13:48:25.845Z,991.42
2023-03-11T13:49:27.951Z,991.45
2023-03-11T13:51:09.028Z,991.45
2023-03-11T13:52:15.055Z,991.44
2023-03-11T13:53:09.228Z,991.47
2023-03-11T13:54:09.201Z,991.56
2023-03-11T13:55:08.992Z,991.49
2023-03-11T13:56:08.990Z,991.50
2023-03-11T13:57:09.169Z,991.47
2023-03-11T13:58:09.168Z,991.50
2023-03-11T13:59:08.932Z,991.48
2023-03-11T14:00:09.007Z,991.57
2023-03-11T14:01:09.013Z,991.54
2023-03-11T14:02:08.946Z,991.55
2023-03-11T14:03:08.893Z,991.55
2023-03-11T14:04:08.944Z,991.58
2023-03-11T14:05:08.904Z,991.56
2023-03-11T14:06:09.081Z,991.62
2023-03-11T14:07:08.920Z,991.56
2023-03-11T14:08:08.870Z,991.54
2023-03-11T14:09:08.839Z,991.56
2023-03-11T14:10:08.884Z,991.55
2023-03-11T14:11:15.294Z,991.54
2023-03-11T14:12:08.820Z,991.53
2023-03-11T14:13:08.809Z,991.54
2023-03-11T14:14:08.816Z,991.49
2023-03-11T14:15:08.769Z,991.53
2023-03-11T14:16:14.910Z,991.60
2023-03-11T14:17:08.755Z,991.59
2023-03-11T14:18:08.755Z,991.65
2023-03-11T14:19:08.844Z,991.64
2023-03-11T14:20:08.839Z,991.66
2023-03-11T14:21:08.715Z,991.69
2023-03-11T14:22:08.714Z,991.67
2023-03-11T14:23:10.736Z,991.70
2023-03-11T14:24:08.691Z,991.64
2023-03-11T14:25:08.683Z,991.69
2023-03-11T14:26:08.689Z,991.70
2023-03-11T14:27:08.649Z,991.68
2023-03-11T14:28:14.694Z,991.74
2023-03-11T14:29:08.645Z,991.72
2023-03-11T14:30:08.650Z,991.67
2023-03-11T14:31:08.607Z,991.68
2023-03-11T14:32:08.596Z,991.71
2023-03-11T14:33:08.588Z,991.71
2023-03-11T14:34:08.619Z,991.66
2023-03-11T14:35:08.579Z,991.59
2023-03-11T14:36:08.593Z,991.63
2023-03-11T14:37:08.537Z,991.63
2023-03-11T14:38:08.546Z,991.63
2023-03-11T14:39:14.560Z,991.64
2023-03-11T14:40:08.589Z,991.63
2023-03-11T14:41:47.392Z,991.62
2023-03-11T14:42:47.396Z,991.61
2023-03-11T14:43:47.357Z,991.62
2023-03-11T14:44:47.598Z,991.61
2023-03-11T14:45:47.669Z,991.66
2023-03-11T14:46:47.367Z,991.67
2023-03-11T14:47:47.299Z,991.60
2023-03-11T14:48:53.569Z,991.55
2023-03-11T14:49:47.525Z,991.49
2023-03-11T14:50:47.313Z,991.51
2023-03-11T14:51:47.280Z,991.48
2023-03-11T14:52:47.292Z,991.54
2023-03-11T14:53:47.247Z,991.47
2023-03-11T14:54:47.261Z,991.44
2023-03-11T14:55:47.229Z,991.45
2023-03-11T14:57:30.451Z,991.48
2023-03-11T14:58:30.377Z,991.42
2023-03-11T14:59:30.354Z,991.42
2023-03-11T15:00:36.200Z,991.42
2023-03-11T15:01:30.259Z,991.45
2023-03-11T15:02:30.126Z,991.44
2023-03-11T15:03:30.153Z,991.45
2023-03-11T15:04:30.163Z,991.45
2023-03-11T15:05:30.139Z,991.47
2023-03-11T15:06:30.085Z,991.49
2023-03-11T15:07:30.589Z,991.56
2023-03-11T15:08:36.114Z,991.49
2023-03-11T15:09:30.262Z,991.53
2023-03-11T15:10:36.343Z,991.50
2023-03-11T15:11:30.066Z,991.51
2023-03-11T15:12:30.022Z,991.55
2023-03-11T15:13:30.048Z,991.50
2023-03-11T15:14:30.015Z,991.51
2023-03-11T15:15:30.004Z,991.52
2023-03-11T15:16:30.266Z,991.54
2023-03-11T15:17:37.356Z,991.52
2023-03-11T15:18:31.063Z,991.51
2023-03-11T15:19:30.144Z,991.51
2023-03-11T15:20:29.940Z,991.54
2023-03-11T15:21:30.068Z,991.51
2023-03-11T15:22:30.375Z,991.57
2023-03-11T15:23:30.347Z,991.61
2023-03-11T15:24:29.914Z,991.58
2023-03-11T15:25:29.891Z,991.60
2023-03-11T15:26:29.949Z,991.58
2023-03-11T15:27:29.892Z,991.63
2023-03-11T15:28:35.917Z,991.63
2023-03-11T15:30:16.751Z,991.59
2023-03-11T15:31:16.843Z,991.65
2023-03-11T15:32:16.925Z,991.64
2023-03-11T15:33:16.673Z,991.65
2023-03-11T15:34:16.882Z,991.60
2023-03-11T15:35:16.692Z,991.64
2023-03-11T15:36:16.620Z,991.63
2023-03-11T15:37:16.644Z,991.63
2023-03-11T15:38:16.641Z,991.65
2023-03-11T15:39:22.641Z,991.60
2023-03-11T15:40:16.605Z,991.64
2023-03-11T15:41:16.619Z,991.64
2023-03-11T15:42:16.576Z,991.62
2023-03-11T15:43:16.606Z,991.67
2023-03-11T15:44:16.578Z,991.64
2023-03-11T15:45:16.771Z,991.66
2023-03-11T15:46:16.658Z,991.66
2023-03-11T15:47:16.569Z,991.72
2023-03-11T15:48:22.563Z,991.71
2023-03-11T15:49:16.933Z,991.75
2023-03-11T15:50:24.180Z,991.69
2023-03-11T15:51:17.569Z,991.72
2023-03-11T15:52:22.551Z,991.70
2023-03-11T15:53:16.492Z,991.78
2023-03-11T15:54:16.453Z,991.78
2023-03-11T15:55:16.625Z,991.77
2023-03-11T15:56:22.432Z,991.80
2023-03-11T15:57:16.446Z,991.81
2023-03-11T15:58:22.542Z,991.85
2023-03-11T15:59:16.441Z,991.85
2023-03-11T16:00:16.408Z,991.83
2023-03-11T16:01:16.406Z,991.85
2023-03-11T16:02:16.350Z,991.81
2023-03-11T16:03:16.347Z,991.84
2023-03-11T16:04:16.447Z,991.81
2023-03-11T16:05:22.379Z,991.83
2023-03-11T16:06:16.803Z,991.88
2023-03-11T16:07:36.823Z,991.89
2023-03-11T16:08:17.372Z,991.95
2023-03-11T16:09:16.284Z,992.00
2023-03-11T16:10:16.283Z,991.93
2023-03-11T16:11:16.280Z,991.98
2023-03-11T16:12:22.303Z,991.99
2023-03-11T16:13:22.342Z,991.99
2023-03-11T16:14:16.217Z,992.00
2023-03-11T16:15:16.273Z,991.96
2023-03-11T16:16:16.281Z,992.02
2023-03-11T16:17:16.237Z,991.99
2023-03-11T16:18:16.190Z,992.04
2023-03-11T16:19:16.185Z,992.01
2023-03-11T16:20:16.174Z,992.05
2023-03-11T16:21:16.179Z,992.06
2023-03-11T16:22:16.372Z,992.05
2023-03-11T16:23:16.366Z,992.04
2023-03-11T16:24:16.204Z,991.99
2023-03-11T16:25:16.324Z,992.04
2023-03-11T16:26:17.151Z,992.04
2023-03-11T16:27:16.111Z,992.08
2023-03-11T16:28:16.101Z,992.14
2023-03-11T16:29:19.647Z,992.07
2023-03-11T16:30:16.085Z,992.07
2023-03-11T16:31:16.140Z,992.09
2023-03-11T16:32:16.321Z,992.03
2023-03-11T16:33:16.061Z,992.04
2023-03-11T16:34:16.041Z,992.08
2023-03-11T16:35:16.095Z,992.11
2023-03-11T16:36:16.032Z,992.09
2023-03-11T16:37:22.120Z,992.08
2023-03-11T16:38:16.059Z,992.16
2023-03-11T16:39:16.230Z,992.11
2023-03-11T16:40:16.223Z,992.13
2023-03-11T16:41:15.953Z,992.16
2023-03-11T16:42:16.332Z,992.13
2023-03-11T16:43:22.036Z,992.14
2023-03-11T16:44:16.192Z,992.13
2023-03-11T16:45:15.942Z,992.16
2023-03-11T16:46:15.959Z,992.17
2023-03-11T16:47:15.925Z,992.17
2023-03-11T16:48:15.901Z,992.25
2023-03-11T16:49:15.876Z,992.27
2023-03-11T16:50:15.894Z,992.23
2023-03-11T16:51:15.857Z,992.23
2023-03-11T16:52:15.933Z,992.20
2023-03-11T16:53:15.814Z,992.23
2023-03-11T16:54:16.021Z,992.24
2023-03-11T16:55:15.844Z,992.21
2023-03-11T16:56:15.857Z,992.24
2023-03-11T16:57:16.050Z,992.26
2023-03-11T16:58:15.812Z,992.31
2023-03-11T16:59:15.960Z,992.30
2023-03-11T17:00:15.775Z,992.27
2023-03-11T17:01:15.774Z,992.31
2023-03-11T17:02:15.985Z,992.30
2023-03-11T17:03:15.713Z,992.28
2023-03-11T17:04:15.765Z,992.28
2023-03-11T17:05:15.850Z,992.30
2023-03-11T17:06:15.718Z,992.30
2023-03-11T17:07:15.746Z,992.30
2023-03-11T17:08:15.920Z,992.33
2023-03-11T17:09:15.709Z,992.31
2023-03-11T17:10:15.940Z,992.34
2023-03-11T17:11:15.637Z,992.34
2023-03-11T17:12:15.844Z,992.33
2023-03-11T17:13:18.835Z,992.35
2023-03-11T17:14:16.970Z,992.40
2023-03-11T17:15:15.623Z,992.38
2023-03-11T17:16:15.680Z,992.43
2023-03-11T17:17:15.582Z,992.44
2023-03-11T17:18:15.870Z,992.46
2023-03-11T17:19:15.598Z,992.49
2023-03-11T17:20:15.601Z,992.47
2023-03-11T17:21:15.556Z,992.48
2023-03-11T17:22:15.609Z,992.51
2023-03-11T17:23:15.511Z,992.50
2023-03-11T17:24:15.519Z,992.50
2023-03-11T17:25:15.506Z,992.52
2023-03-11T17:26:17.795Z,992.53
2023-03-11T17:27:21.607Z,992.58
2023-03-11T17:28:15.469Z,992.55
2023-03-11T17:29:15.492Z,992.54
2023-03-11T17:30:24.276Z,992.57
2023-03-11T17:31:16.888Z,992.55
2023-03-11T17:32:17.210Z,992.56
2023-03-11T17:33:15.654Z,992.58
2023-03-11T17:34:15.428Z,992.56
2023-03-11T17:35:15.445Z,992.57
2023-03-11T17:36:15.418Z,992.55
2023-03-11T17:37:15.402Z,992.61
2023-03-11T17:38:16.606Z,992.60
2023-03-11T17:39:15.381Z,992.65
2023-03-11T17:40:15.364Z,992.57
2023-03-11T17:41:15.368Z,992.60
2023-03-11T17:42:15.342Z,992.59
2023-03-11T17:43:15.357Z,992.61
2023-03-11T17:44:15.306Z,992.62
2023-03-11T17:45:15.365Z,992.61
2023-03-11T17:46:21.434Z,992.61
2023-03-11T17:47:15.305Z,992.61
2023-03-11T17:48:15.287Z,992.65
2023-03-11T17:49:15.287Z,992.65
2023-03-11T17:50:15.272Z,992.68
2023-03-11T17:51:15.247Z,992.65
2023-03-11T17:52:15.247Z,992.68
2023-03-11T17:53:15.257Z,992.70
2023-03-11T17:54:15.228Z,992.71
2023-03-11T17:55:15.208Z,992.74
2023-03-11T17:56:15.227Z,992.76
2023-03-11T17:57:15.178Z,992.73
2023-03-11T17:58:15.219Z,992.76
2023-03-11T17:59:17.626Z,992.75
2023-03-11T18:00:15.322Z,992.80
2023-03-11T18:01:15.195Z,992.74
2023-03-11T18:02:15.249Z,992.76
2023-03-11T18:03:15.126Z,992.78
2023-03-11T18:04:15.168Z,992.81
2023-03-11T18:05:16.970Z,992.79
2023-03-11T18:06:15.089Z,992.82
2023-03-11T18:07:15.077Z,992.81
2023-03-11T18:08:15.100Z,992.76
2023-03-11T18:09:15.140Z,992.81
2023-03-11T18:11:18.224Z,992.84
2023-03-11T18:12:15.061Z,992.91
2023-03-11T18:13:15.091Z,992.86
2023-03-11T18:14:15.095Z,992.87
2023-03-11T21:17:13.461Z,993.85
2023-03-11T21:20:13.225Z,993.89
2023-03-11T21:22:13.471Z,993.86
2023-03-11T21:23:13.322Z,993.88
